Detalii statie AGRALMIXT [00001CED]

Toti senzorii

Date Temperatura solului [C]Precipitatii [mm]Voltaj baterie [mV]Leaf Wetness [Min]HC Air temperature [C]HC Relative humidity [%]Punctul de roua [C]
medieminmaxsumaultimatimpmedieminmaxmediemediemin
2018-12-09 15:00:00 0 7176 4.07 3.47 4.72 99.28 3.9 3.4
2018-12-09 16:00:00 0 6982 2.91 1.85 3.81 100 2.8 1.8
2018-12-09 17:00:00 0 6834 1.19 0.42 1.96 100 1.1 0.4
2018-12-09 18:00:00 0 6786 -0.45 -0.77 -0.02 100 -0.3 -0.6
2018-12-09 19:00:00 0 6766 -0.62 -1.34 -0.15 100 -0.4 -1.2
2018-12-09 20:00:00 0 6756 -0.23 -0.58 0.01 100 -0.1 -0.4
2018-12-09 21:00:00 0 6756 -0.34 -0.86 0 100 -0.2 -0.7
2018-12-09 22:00:00 0 6748 -0.27 -0.52 -0.02 100 -0.1 -0.4
2018-12-09 23:00:00 0 6748 -0.17 -0.48 0.21 100 0 -0.3
2018-12-10 00:00:00 0 6748 -0.14 -0.62 0.05 100 0 -0.5
2018-12-10 01:00:00 0 6748 0.11 -0.03 0.24 100 0 0
2018-12-10 02:00:00 0 6738 0.11 -0.05 0.27 100 0 0
2018-12-10 03:00:00 0 6738 -0.02 -0.37 0.18 100 0 -0.2
2018-12-10 04:00:00 0 6738 -0.95 -1.46 -0.45 100 -0.8 -1.3
2018-12-10 05:00:00 0 6738 -0.78 -1.48 -0.51 100 -0.6 -1.3
2018-12-10 06:00:00 0 6718 -1.44 -1.75 -1.15 100 -1.2 -1.6
2018-12-10 07:00:00 0 6718 -3.03 -3.6 -2.27 100 -2.9 -3.5
2018-12-10 08:00:00 0 6708 -3.5 -4.3 -3.09 100 -3.3 -4.2
2018-12-10 09:00:00 0 7148 -2.11 -2.97 -1.36 100 -1.9 -2.8
2018-12-10 10:00:00 0 7284 -0.63 -1.41 0.48 100 -0.5 -1.3
2018-12-10 11:00:00 0.2 7294 0.29 0.14 0.66 100 0.2 0.1
2018-12-10 12:00:00 0 7342 0.9 0.71 1.1 100 0.8 0.7
2018-12-10 13:00:00 0 7332 0.92 0.68 1.28 100 0.8 0.6
2018-12-10 14:00:00 0 7324 0.84 0.47 1.13 100 0.7 0.4
2018-12-10 15:00:00 0 7236 0.64 0.41 0.82 100 0.6 0.4
2018-12-10 16:00:00 0 6972 0.09 -0.27 0.38 100 0 -0.1
2018-12-10 17:00:00 0 6816 -0.62 -0.73 -0.38 100 -0.4 -0.6
2018-12-10 18:00:00 0 6766 -0.77 -0.9 -0.6 100 -0.6 -0.8
2018-12-10 19:00:00 0 6756 -0.91 -0.99 -0.8 100 -0.7 -0.8
2018-12-10 20:00:00 0 6748 -0.94 -0.98 -0.89 100 -0.7 -0.8
2018-12-10 21:00:00 0 6748 -0.56 -0.89 -0.32 100 -0.4 -0.7
2018-12-10 22:00:00 0 6738 -0.26 -0.31 -0.23 100 -0.1 -0.2
2018-12-10 23:00:00 0 6738 -0.26 -0.3 -0.22 100 -0.1 -0.2
2018-12-11 00:00:00 0 6738 -0.32 -0.37 -0.27 100 -0.1 -0.2
2018-12-11 01:00:00 0 6728 -0.18 -0.31 -0.11 100 0 -0.2
2018-12-11 02:00:00 0 6728 -0.24 -0.38 -0.11 100 0 -0.2
2018-12-11 03:00:00 0 6728 -0.21 -0.37 0.01 100 0 -0.2
2018-12-11 04:00:00 0 6718 -0.53 -0.81 -0.26 100 -0.3 -0.7
2018-12-11 05:00:00 0 6718 -0.75 -0.91 -0.63 100 -0.6 -0.8
2018-12-11 06:00:00 0 6718 -0.5 -0.88 -0.25 100 -0.3 -0.7
2018-12-11 07:00:00 0 6708 -0.48 -0.59 -0.32 100 -0.3 -0.4
2018-12-11 08:00:00 0 6708 -0.59 -0.8 -0.4 100 -0.4 -0.7
2018-12-11 09:00:00 0 6776 -0.51 -0.69 -0.34 100 -0.3 -0.5
2018-12-11 10:00:00 0.2 7226 0.19 -0.59 0.57 100 0.1 -0.4
2018-12-11 11:00:00 0.2 7362 1.18 0.55 2.03 100 1.1 0.5
2018-12-11 12:00:00 0.2 7342 2.36 2.16 2.53 99.9 2.3 2.1
2018-12-11 13:00:00 0 7332 2.41 2.19 2.68 97.92 2 1.9